createdAt,value
2018-11-22T00:00:23.905Z,100691.63
2018-11-22T00:03:08.205Z,100696.80
2018-11-22T00:05:59.492Z,100702.76
2018-11-22T00:08:43.651Z,100697.20
2018-11-22T00:11:34.859Z,100696.27
2018-11-22T00:14:18.600Z,100704.03
2018-11-22T00:17:09.864Z,100697.19
2018-11-22T00:19:55.960Z,100696.06
2018-11-22T00:22:45.126Z,100693.41
2018-11-22T00:25:36.360Z,100702.24
2018-11-22T00:28:19.795Z,100698.13
2018-11-22T00:31:13.951Z,100705.53
2018-11-22T00:33:58.109Z,100704.02
2018-11-22T00:36:46.631Z,100709.66
2018-11-22T00:39:30.223Z,100710.47
2018-11-22T00:42:21.432Z,100705.37
2018-11-22T00:45:05.965Z,100704.34
2018-11-22T00:48:00.451Z,100708.41
2018-11-22T00:50:29.714Z,100707.63
2018-11-22T00:53:20.951Z,100703.28
2018-11-22T00:56:04.489Z,100702.35
2018-11-22T00:58:55.700Z,100703.54
2018-11-22T01:01:39.129Z,100706.70
2018-11-22T01:04:32.379Z,100705.80
2018-11-22T01:07:14.283Z,100708.52
2018-11-22T01:10:05.725Z,100709.37
2018-11-22T01:12:49.668Z,100711.89
2018-11-22T01:15:40.877Z,100713.73
2018-11-22T01:18:24.330Z,100715.45
2018-11-22T01:21:17.722Z,100715.45
2018-11-22T01:23:59.786Z,100707.73
2018-11-22T01:26:51.037Z,100718.55
2018-11-22T01:29:37.838Z,100709.94
2018-11-22T01:32:26.378Z,100714.75
2018-11-22T01:35:10.734Z,100706.81
2018-11-22T01:38:01.980Z,100703.83
2018-11-22T01:40:46.098Z,100709.04
2018-11-22T01:43:37.367Z,100709.94
2018-11-22T01:46:21.056Z,100711.66
2018-11-22T01:49:12.313Z,100710.78
2018-11-22T01:52:03.563Z,100705.51
2018-11-22T01:54:55.010Z,100705.13
2018-11-22T01:57:42.108Z,100703.83
2018-11-22T02:00:30.255Z,100695.52
2018-11-22T02:03:13.899Z,100700.35
2018-11-22T02:06:05.099Z,100701.22
2018-11-22T02:08:50.701Z,100701.69
2018-11-22T02:11:41.402Z,100695.55
2018-11-22T02:14:25.052Z,100697.57
2018-11-22T02:17:16.338Z,100698.09
2018-11-22T02:20:00.621Z,100696.80
2018-11-22T02:22:51.975Z,100697.17
2018-11-22T02:25:36.282Z,100698.99
2018-11-22T02:28:27.483Z,100698.98
2018-11-22T02:31:11.268Z,100699.39
2018-11-22T02:34:02.926Z,100695.95
2018-11-22T02:36:54.158Z,100692.39
2018-11-22T02:39:39.947Z,100690.27
2018-11-22T02:42:29.067Z,100684.24
2018-11-22T02:45:14.295Z,100685.95
2018-11-22T02:48:07.553Z,100682.97
2018-11-22T02:50:49.643Z,100683.80
2018-11-22T02:53:40.857Z,100686.80
2018-11-22T02:56:24.333Z,100682.01
2018-11-22T02:59:15.553Z,100681.61
2018-11-22T03:01:59.295Z,100682.48
2018-11-22T03:04:50.558Z,100685.52
2018-11-22T03:07:34.388Z,100689.38
2018-11-22T03:10:25.607Z,100684.13
2018-11-22T03:13:09.537Z,100684.59
2018-11-22T03:16:02.779Z,100687.11
2018-11-22T03:18:44.266Z,100687.95
2018-11-22T03:21:35.541Z,100687.98
2018-11-22T03:24:19.070Z,100683.63
2018-11-22T03:27:10.330Z,100684.78
2018-11-22T03:29:53.950Z,100682.27
2018-11-22T03:32:45.194Z,100684.84
2018-11-22T03:35:29.493Z,100691.34
2018-11-22T03:38:20.705Z,100694.34
2018-11-22T03:41:04.450Z,100690.53
2018-11-22T03:43:55.997Z,100694.44
2018-11-22T03:46:39.442Z,100690.16
2018-11-22T03:49:30.648Z,100689.94
2018-11-22T03:52:14.965Z,100691.83
2018-11-22T03:55:07.401Z,100687.86
2018-11-22T03:57:51.428Z,100682.73
2018-11-22T04:00:42.673Z,100681.55
2018-11-22T04:03:26.927Z,100684.50
2018-11-22T04:06:18.551Z,100685.86
2018-11-22T04:09:04.330Z,100679.92
2018-11-22T04:11:53.534Z,100678.62
2018-11-22T04:14:37.121Z,100679.84
2018-11-22T04:17:28.382Z,100680.73
2018-11-22T04:20:14.587Z,100674.22
2018-11-22T04:23:06.234Z,100670.65
2018-11-22T04:25:49.515Z,100673.29
2018-11-22T04:28:40.719Z,100673.26
2018-11-22T04:31:27.247Z,100674.53
2018-11-22T04:34:34.689Z,100671.95
2018-11-22T04:37:18.414Z,100673.58
2018-11-22T04:40:12.693Z,100673.58
2018-11-22T04:42:57.012Z,100673.72
2018-11-22T04:45:48.841Z,100673.34
2018-11-22T04:48:33.127Z,100671.17
2018-11-22T04:51:24.340Z,100675.46
2018-11-22T04:54:08.072Z,100672.02
2018-11-22T04:56:59.282Z,100674.19
2018-11-22T04:59:50.049Z,100670.45
2018-11-22T05:02:34.101Z,100671.70
2018-11-22T05:05:18.706Z,100673.03
2018-11-22T05:08:09.954Z,100663.47
2018-11-22T05:10:53.825Z,100670.48
2018-11-22T05:13:45.131Z,100664.45
2018-11-22T05:16:28.674Z,100665.81
2018-11-22T05:19:19.923Z,100669.15
2018-11-22T05:22:03.970Z,100670.94
2018-11-22T05:24:55.227Z,100664.06
2018-11-22T05:27:41.588Z,100666.19
2018-11-22T05:30:31.161Z,100666.63
2018-11-22T05:33:14.867Z,100667.11
2018-11-22T12:15:52.994Z,100674.45
2018-11-22T12:18:23.739Z,100674.65
2018-11-22T12:20:54.533Z,100672.96
2018-11-22T12:23:25.373Z,100672.86
2018-11-22T12:25:56.106Z,100671.06
2018-11-22T12:28:26.923Z,100667.53
2018-11-22T12:30:57.704Z,100662.34
2018-11-22T12:33:44.542Z,100664.58
2018-11-22T12:36:20.520Z,100660.84
2018-11-22T12:38:51.339Z,100660.27
2018-11-22T12:41:22.077Z,100664.09
2018-11-22T12:43:52.928Z,100658.31
2018-11-22T12:46:23.694Z,100659.15
2018-11-22T12:48:54.467Z,100649.50
2018-11-22T12:51:25.267Z,100657.17
2018-11-22T12:53:55.973Z,100651.11
2018-11-22T12:56:26.769Z,100645.88
2018-11-22T12:58:57.527Z,100646.27
2018-11-22T13:01:28.303Z,100649.11
2018-11-22T13:03:59.122Z,100648.24
2018-11-22T13:06:29.887Z,100644.72
2018-11-22T13:09:00.657Z,100648.78
2018-11-22T13:11:31.417Z,100645.67
2018-11-22T13:14:02.166Z,100641.89
2018-11-22T13:16:33.112Z,100647.52
2018-11-22T13:19:03.949Z,100645.23
2018-11-22T13:21:34.735Z,100647.07
2018-11-22T13:24:06.106Z,100639.66
2018-11-22T13:26:36.980Z,100641.02
2018-11-22T13:29:07.744Z,100640.91
2018-11-22T13:31:38.583Z,100634.38
2018-11-22T13:34:09.361Z,100636.07
2018-11-22T13:36:40.061Z,100635.59
2018-11-22T13:39:11.847Z,100630.83
2018-11-22T13:41:42.619Z,100627.72
2018-11-22T13:44:13.559Z,100634.22
2018-11-22T13:46:44.421Z,100629.47
2018-11-22T13:49:15.243Z,100627.30
2018-11-22T13:51:46.026Z,100636.79
2018-11-22T13:54:16.811Z,100634.55
2018-11-22T13:56:47.480Z,100636.44
2018-11-22T13:59:18.230Z,100637.33
2018-11-22T14:01:48.974Z,100638.19
2018-11-22T14:04:19.983Z,100645.52
2018-11-22T14:06:50.758Z,100635.86
2018-11-22T14:09:21.559Z,100637.99
2018-11-22T14:11:52.334Z,100636.79
2018-11-22T14:14:23.138Z,100632.52
2018-11-22T14:16:53.958Z,100635.58
2018-11-22T14:19:24.727Z,100637.85
2018-11-22T14:21:55.498Z,100628.75
2018-11-22T14:24:27.028Z,100632.97
2018-11-22T14:26:57.866Z,100628.42
2018-11-22T14:29:28.724Z,100631.28
2018-11-22T14:31:59.770Z,100632.83
2018-11-22T14:34:30.524Z,100632.19
2018-11-22T14:37:01.206Z,100632.30
2018-11-22T14:39:32.042Z,100634.23
2018-11-22T14:42:02.979Z,100625.95
2018-11-22T14:44:33.872Z,100634.78
2018-11-22T14:47:04.823Z,100634.92
2018-11-22T14:49:35.590Z,100629.50
2018-11-22T14:52:07.242Z,100626.38
2018-11-22T14:54:38.027Z,100632.10
2018-11-22T14:57:08.880Z,100629.30
2018-11-22T14:59:39.576Z,100635.94
2018-11-22T15:02:10.379Z,100635.98
2018-11-22T15:04:41.054Z,100635.34
2018-11-22T15:07:11.910Z,100637.73
2018-11-22T15:09:42.708Z,100625.46
2018-11-22T15:12:13.490Z,100634.63
2018-11-22T15:14:44.284Z,100636.27
2018-11-22T15:17:15.029Z,100633.07
2018-11-22T15:19:45.746Z,100631.81
2018-11-22T15:22:16.506Z,100633.66
2018-11-22T15:24:47.321Z,100626.23
2018-11-22T15:27:18.094Z,100629.30
2018-11-22T15:29:48.849Z,100623.00
2018-11-22T15:32:19.575Z,100622.17
2018-11-22T15:34:50.317Z,100618.84
2018-11-22T15:37:21.090Z,100624.55
2018-11-22T15:39:51.942Z,100619.81
2018-11-22T15:42:22.713Z,100623.35
2018-11-22T15:44:53.422Z,100623.98
2018-11-22T15:47:24.199Z,100623.20
2018-11-22T15:49:54.938Z,100628.38
2018-11-22T15:52:25.672Z,100628.66
2018-11-22T15:54:56.452Z,100624.36
2018-11-22T15:57:27.131Z,100624.23
2018-11-22T15:59:58.017Z,100632.70
2018-11-22T16:02:28.816Z,100630.26
2018-11-22T16:04:59.570Z,100634.97
2018-11-22T16:07:30.374Z,100630.77
2018-11-22T16:10:01.118Z,100636.00
2018-11-22T16:12:31.943Z,100641.00
2018-11-22T16:15:02.664Z,100640.92
2018-11-22T16:17:33.426Z,100637.08
2018-11-22T16:20:04.307Z,100632.41
2018-11-22T16:22:35.150Z,100641.95
2018-11-22T16:25:07.809Z,100640.25
2018-11-22T16:27:38.862Z,100641.13
2018-11-22T16:30:17.211Z,100647.66
2018-11-22T16:32:48.152Z,100645.48
2018-11-22T16:35:19.933Z,100642.55
2018-11-22T16:37:50.772Z,100647.86
2018-11-22T16:40:25.020Z,100651.02
2018-11-22T16:42:56.812Z,100656.28
2018-11-22T16:45:30.664Z,100650.15
2018-11-22T16:48:02.860Z,100652.28
2018-11-22T16:50:34.646Z,100651.20
2018-11-22T16:53:05.782Z,100651.25
2018-11-22T16:55:36.614Z,100652.11
2018-11-22T16:58:08.338Z,100647.77
2018-11-22T17:00:40.014Z,100646.17
2018-11-22T17:03:13.291Z,100658.42
2018-11-22T17:05:44.677Z,100666.26
2018-11-22T17:08:15.452Z,100668.94
2018-11-22T17:13:48.390Z,100669.14
2018-11-22T17:16:19.306Z,100667.87
2018-11-22T17:18:50.564Z,100671.35
2018-11-22T17:21:21.365Z,100667.80
2018-11-22T17:23:52.214Z,100666.10
2018-11-22T17:26:23.713Z,100661.88
2018-11-22T17:31:39.935Z,100665.93
2018-11-22T17:34:10.622Z,100658.91
2018-11-22T17:36:41.317Z,100662.83
2018-11-22T17:39:14.411Z,100673.59
2018-11-22T17:41:45.076Z,100668.88
2018-11-22T17:44:15.704Z,100667.94
2018-11-22T17:46:46.417Z,100674.16
2018-11-22T17:49:17.119Z,100678.34
2018-11-22T17:51:47.935Z,100678.91
2018-11-22T17:54:18.657Z,100674.16
2018-11-22T17:56:49.443Z,100674.59
2018-11-22T17:59:20.220Z,100675.99
2018-11-22T18:01:51.049Z,100676.00
2018-11-22T18:04:21.728Z,100672.45
2018-11-22T18:06:52.452Z,100674.22
2018-11-22T18:09:23.091Z,100677.73
2018-11-22T18:11:53.732Z,100678.73
2018-11-22T18:14:24.414Z,100673.70
2018-11-22T18:16:55.069Z,100685.48
2018-11-22T18:19:25.716Z,100684.67
2018-11-22T18:21:56.479Z,100684.27
2018-11-22T18:24:27.864Z,100684.73
2018-11-22T18:26:58.506Z,100685.55
2018-11-22T18:29:29.174Z,100687.80
2018-11-22T18:31:59.827Z,100687.91
2018-11-22T18:34:30.519Z,100686.53
2018-11-22T18:37:01.154Z,100683.05
2018-11-22T18:39:31.777Z,100680.45
2018-11-22T18:42:02.387Z,100686.47
2018-11-22T18:44:33.170Z,100686.41
2018-11-22T18:47:03.916Z,100681.75
2018-11-22T18:49:34.562Z,100684.79
2018-11-22T18:52:05.234Z,100685.80
2018-11-22T18:54:35.877Z,100689.84
2018-11-22T18:57:06.885Z,100684.23
2018-11-22T18:59:38.070Z,100689.05
2018-11-22T19:02:09.084Z,100691.56
2018-11-22T19:04:39.735Z,100691.56
2018-11-22T19:07:10.509Z,100687.79
2018-11-22T19:09:41.122Z,100685.92
2018-11-22T19:12:11.860Z,100687.61
2018-11-22T19:14:42.640Z,100692.31
2018-11-22T19:17:13.505Z,100696.33
2018-11-22T19:19:44.207Z,100690.68
2018-11-22T19:22:15.167Z,100692.84
2018-11-22T19:24:45.827Z,100696.78
2018-11-22T19:27:17.043Z,100698.14
2018-11-22T19:29:47.772Z,100697.75
2018-11-22T19:32:18.741Z,100697.85
2018-11-22T19:34:49.402Z,100705.16
2018-11-22T19:37:20.050Z,100709.44
2018-11-22T19:39:50.725Z,100704.66
2018-11-22T19:42:21.382Z,100706.00
2018-11-22T19:44:52.057Z,100703.05
2018-11-22T19:47:22.743Z,100712.59
2018-11-22T19:49:53.577Z,100706.92
2018-11-22T19:52:24.273Z,100709.19
2018-11-22T19:54:54.984Z,100712.30
2018-11-22T19:57:25.662Z,100714.45
2018-11-22T19:59:56.333Z,100714.46
2018-11-22T20:02:27.006Z,100712.27
2018-11-22T20:04:57.708Z,100707.91
2018-11-22T20:07:28.413Z,100703.52
2018-11-22T20:09:59.141Z,100704.84
2018-11-22T20:12:30.145Z,100713.09
2018-11-22T20:15:00.836Z,100707.86
2018-11-22T20:17:31.529Z,100709.19
2018-11-22T20:20:03.755Z,100707.01
2018-11-22T20:22:34.948Z,100713.58
2018-11-22T20:25:06.541Z,100715.31
2018-11-22T20:27:38.387Z,100723.52
2018-11-22T20:30:19.723Z,100719.66
2018-11-22T20:32:50.711Z,100713.52
2018-11-22T20:35:22.331Z,100711.84
2018-11-22T20:37:53.850Z,100710.58
2018-11-22T20:40:26.325Z,100719.66
2018-11-22T20:42:57.717Z,100721.91
2018-11-22T20:45:29.440Z,100715.44
2018-11-22T20:48:01.738Z,100719.76
2018-11-22T20:50:33.025Z,100718.13
2018-11-22T20:53:03.713Z,100722.09
2018-11-22T20:55:35.841Z,100712.13
2018-11-22T20:58:07.112Z,100717.40
2018-11-22T21:00:39.250Z,100714.36
2018-11-22T21:03:09.964Z,100714.31
2018-11-22T21:05:40.673Z,100712.61
2018-11-22T21:08:11.364Z,100712.14
2018-11-22T21:10:42.097Z,100708.58
2018-11-22T21:13:12.764Z,100703.04
2018-11-22T21:15:43.450Z,100705.22
2018-11-22T21:18:14.123Z,100697.44
2018-11-22T21:20:44.833Z,100700.95
2018-11-22T21:23:15.488Z,100695.80
2018-11-22T21:25:46.188Z,100694.98
2018-11-22T21:28:16.802Z,100697.55
2018-11-22T21:30:47.513Z,100696.73
2018-11-22T21:33:18.208Z,100696.85
2018-11-22T21:35:48.881Z,100700.77
2018-11-22T21:38:19.541Z,100697.69
2018-11-22T21:40:50.160Z,100701.13
2018-11-22T21:43:20.884Z,100700.34
2018-11-22T21:45:51.576Z,100699.91
2018-11-22T21:48:22.273Z,100697.66
2018-11-22T21:50:52.962Z,100686.84
2018-11-22T21:53:23.641Z,100688.03
2018-11-22T21:55:54.390Z,100688.92
2018-11-22T21:58:25.096Z,100692.39
2018-11-22T22:00:55.804Z,100692.00
2018-11-22T22:03:26.536Z,100692.53
2018-11-22T22:05:57.323Z,100700.36
2018-11-22T22:08:27.946Z,100696.88
2018-11-22T22:10:58.673Z,100701.71
2018-11-22T22:13:29.380Z,100693.06
2018-11-22T22:16:00.073Z,100692.20
2018-11-22T22:18:30.735Z,100695.30
2018-11-22T22:21:01.443Z,100694.42
2018-11-22T22:23:32.046Z,100697.09
2018-11-22T22:26:02.748Z,100694.52
2018-11-22T22:28:33.394Z,100692.80
2018-11-22T22:31:04.091Z,100692.38
2018-11-22T22:33:34.836Z,100695.03
2018-11-22T22:36:05.847Z,100692.88
2018-11-22T22:38:36.548Z,100689.00
2018-11-22T22:41:07.309Z,100685.53
2018-11-22T22:43:38.036Z,100682.04
2018-11-22T22:46:08.903Z,100685.95
2018-11-22T22:48:39.544Z,100681.16
2018-11-22T22:51:10.227Z,100686.86
2018-11-22T22:53:40.941Z,100689.91
2018-11-22T22:56:11.654Z,100692.14
2018-11-22T22:58:42.316Z,100687.78
2018-11-22T23:01:12.988Z,100690.84
2018-11-22T23:03:43.771Z,100685.25
2018-11-22T23:06:14.453Z,100686.11
2018-11-22T23:08:45.193Z,100689.59
2018-11-22T23:11:15.901Z,100695.23
2018-11-22T23:13:46.557Z,100693.08
2018-11-22T23:16:17.240Z,100697.01
2018-11-22T23:18:47.888Z,100699.62
2018-11-22T23:21:18.597Z,100703.95
2018-11-22T23:23:49.282Z,100706.93
2018-11-22T23:26:19.984Z,100705.23
2018-11-22T23:28:50.718Z,100706.97
2018-11-22T23:31:21.424Z,100706.98
2018-11-22T23:33:52.096Z,100703.11
2018-11-22T23:36:22.782Z,100697.05
2018-11-22T23:38:53.435Z,100701.81
2018-11-22T23:41:24.129Z,100702.23
2018-11-22T23:43:54.750Z,100709.58
2018-11-22T23:46:25.457Z,100706.09
2018-11-22T23:48:56.141Z,100703.08
2018-11-22T23:51:26.843Z,100699.18
2018-11-22T23:53:57.554Z,100698.30
2018-11-22T23:56:28.194Z,100702.22
2018-11-22T23:58:58.901Z,100702.66
